Time;durP1;ratioP1;P1;durP2;ratioP2;P2;SDS_P1;SDS_P2;PMS_P1;PMS_P2;Temp;Humidity;BMP_temperature;BMP_pressure;BME280_temperature;BME280_humidity;BME280_pressure;Samples;Min_cycle;Max_cycle;Signal;HPM_P1;HPM_P2
2022/07/10 00:00:09;;;;;;;7.25;1.98;;;14.00;99.90;;;;;;5097397;28;20077;-72
2022/07/10 00:02:36;;;;;;;16.02;1.58;;;14.00;99.90;;;;;;5097699;28;20150;-73
2022/07/10 00:05:03;;;;;;;7.15;1.60;;;14.00;99.90;;;;;;5097411;28;20050;-73
2022/07/10 00:07:30;;;;;;;8.93;1.73;;;13.90;99.90;;;;;;5115078;28;20097;-74
2022/07/10 00:09:58;;;;;;;6.40;2.60;;;14.00;99.90;;;;;;5128098;27;20039;-74
2022/07/10 00:12:25;;;;;;;8.02;3.80;;;14.00;99.90;;;;;;5136217;27;20051;-74
2022/07/10 00:14:52;;;;;;;6.30;2.30;;;14.00;99.90;;;;;;5117712;27;20141;-74
2022/07/10 00:17:19;;;;;;;4.18;1.70;;;14.10;99.90;;;;;;5117961;27;20047;-73
2022/07/10 00:19:46;;;;;;;10.55;2.10;;;14.20;99.90;;;;;;5117704;27;20505;-73
2022/07/10 00:22:13;;;;;;;12.73;1.90;;;14.20;99.90;;;;;;5135653;27;20562;-73
2022/07/10 00:24:40;;;;;;;17.88;2.17;;;14.20;99.90;;;;;;5116897;27;20567;-73
2022/07/10 00:27:08;;;;;;;7.47;1.65;;;14.20;99.90;;;;;;5117409;27;20429;-73
2022/07/10 00:29:35;;;;;;;11.93;1.92;;;14.10;99.90;;;;;;5105989;28;20120;-73
2022/07/10 00:32:02;;;;;;;5.60;1.65;;;14.10;99.90;;;;;;5097117;28;20109;-73
2022/07/10 00:34:29;;;;;;;6.47;1.77;;;14.10;99.90;;;;;;5096388;28;20051;-72
2022/07/10 00:36:56;;;;;;;6.03;1.67;;;14.00;99.90;;;;;;5115494;28;20128;-73
2022/07/10 00:39:23;;;;;;;8.05;2.17;;;14.00;99.90;;;;;;5096564;28;20520;-73
2022/07/10 00:41:50;;;;;;;6.90;1.85;;;14.10;99.90;;;;;;5114484;28;20073;-73
2022/07/10 00:44:18;;;;;;;6.53;2.22;;;14.10;99.90;;;;;;5114778;28;20432;-73
2022/07/10 00:46:45;;;;;;;9.02;2.38;;;14.20;99.90;;;;;;5096729;28;20380;-73
2022/07/10 00:49:12;;;;;;;8.10;2.35;;;14.20;99.90;;;;;;5096156;28;20055;-73
2022/07/10 00:51:39;;;;;;;7.93;1.80;;;14.20;99.90;;;;;;5115148;28;20059;-74
2022/07/10 00:54:07;;;;;;;13.77;2.17;;;14.20;99.90;;;;;;5096522;28;20048;-73
2022/07/10 00:56:34;;;;;;;7.53;2.58;;;14.10;99.90;;;;;;5095893;28;20092;-74
2022/07/10 00:59:01;;;;;;;12.57;2.50;;;14.10;99.90;;;;;;5096615;28;20059;-73
2022/07/10 01:01:29;;;;;;;5.38;2.03;;;14.00;99.90;;;;;;5095488;28;20043;-73
2022/07/10 01:03:56;;;;;;;8.35;1.98;;;14.00;99.90;;;;;;5114049;28;20134;-72
2022/07/10 01:06:23;;;;;;;9.45;2.35;;;13.90;99.90;;;;;;5114691;28;20105;-73
2022/07/10 01:08:50;;;;;;;10.95;2.50;;;13.80;99.90;;;;;;5105423;27;20047;-73
2022/07/10 01:11:17;;;;;;;7.38;1.88;;;13.80;99.90;;;;;;5116380;27;20043;-73
2022/07/10 01:13:44;;;;;;;12.85;2.10;;;13.80;99.90;;;;;;5115717;27;20047;-73
2022/07/10 01:16:12;;;;;;;9.25;2.40;;;13.70;99.90;;;;;;5117143;27;20503;-73
2022/07/10 01:18:40;;;;;;;6.15;1.65;;;13.60;99.90;;;;;;5116288;27;20054;-72
2022/07/10 01:21:24;;;;;;;11.57;2.60;;;13.60;99.90;;;;;;5134884;27;20376;-73
2022/07/10 01:23:51;;;;;;;8.95;1.63;;;13.60;99.90;;;;;;5134212;27;20096;-73
2022/07/10 01:26:20;;;;;;;5.60;1.80;;;13.60;99.90;;;;;;5116430;27;20059;-73
2022/07/10 01:28:49;;;;;;;8.50;1.77;;;13.50;99.90;;;;;;5114543;27;20065;-73
2022/07/10 01:31:16;;;;;;;7.80;1.67;;;13.40;99.90;;;;;;5116181;27;20047;-73
2022/07/10 01:33:44;;;;;;;5.60;1.40;;;13.40;99.90;;;;;;5116361;27;20051;-72
2022/07/10 01:36:12;;;;;;;11.98;1.75;;;13.40;99.90;;;;;;5116480;27;20047;-72
2022/07/10 01:38:40;;;;;;;5.05;1.88;;;13.30;99.90;;;;;;5114875;27;20051;-73
2022/07/10 01:41:08;;;;;;;5.93;1.42;;;13.30;99.90;;;;;;5116301;27;20110;-73
2022/07/10 01:43:35;;;;;;;9.90;1.50;;;13.30;99.90;;;;;;5134226;27;20046;-73
2022/07/10 01:46:02;;;;;;;5.28;1.80;;;13.30;99.90;;;;;;5133462;27;20072;-73
2022/07/10 01:48:29;;;;;;;5.82;1.50;;;13.20;99.90;;;;;;5134175;27;20051;-73
2022/07/10 01:50:56;;;;;;;3.33;1.10;;;13.20;99.90;;;;;;5116174;27;20507;-73
2022/07/10 01:53:24;;;;;;;10.00;2.53;;;13.20;99.90;;;;;;5133894;27;20103;-73
2022/07/10 01:55:51;;;;;;;8.02;1.70;;;13.20;99.90;;;;;;5134157;27;20487;-73
2022/07/10 01:58:18;;;;;;;6.70;1.60;;;13.10;99.90;;;;;;5134468;27;20555;-73
2022/07/10 02:00:45;;;;;;;6.47;1.50;;;13.10;99.90;;;;;;5115084;27;20043;-73
2022/07/10 02:05:57;;;;;;;8.52;1.65;;;13.10;99.90;;;;;;5114618;27;20402;-74
2022/07/10 02:08:25;;;;;;;9.73;2.10;;;13.00;99.90;;;;;;5116085;27;20059;-71
2022/07/10 02:10:52;;;;;;;4.70;1.33;;;13.00;99.90;;;;;;5133983;27;20043;-72
2022/07/10 02:13:20;;;;;;;11.07;2.78;;;13.00;99.90;;;;;;5115047;27;20494;-73
2022/07/10 02:15:47;;;;;;;9.35;1.95;;;13.00;99.90;;;;;;5115773;27;20047;-73
2022/07/10 02:18:14;;;;;;;9.05;1.58;;;13.00;99.90;;;;;;5115747;27;20116;-72
2022/07/10 02:20:41;;;;;;;7.03;1.63;;;12.90;99.90;;;;;;5105835;28;20536;-73
2022/07/10 02:23:08;;;;;;;9.80;1.42;;;12.90;99.90;;;;;;5113385;28;20097;-73
2022/07/10 02:25:36;;;;;;;12.90;1.95;;;12.90;99.90;;;;;;5121088;27;20047;-73
2022/07/10 02:28:03;;;;;;;7.22;1.50;;;12.90;99.90;;;;;;5115152;27;20127;-73
2022/07/10 02:30:30;;;;;;;13.20;1.75;;;12.90;99.90;;;;;;5120010;28;20123;-73
2022/07/10 02:32:57;;;;;;;8.30;1.90;;;12.90;99.90;;;;;;5113145;28;20093;-73
2022/07/10 02:35:24;;;;;;;10.43;1.83;;;12.90;99.90;;;;;;5112628;28;20059;-73
2022/07/10 02:37:51;;;;;;;8.68;1.67;;;12.90;99.90;;;;;;5112983;28;20270;-73
2022/07/10 02:40:18;;;;;;;9.68;2.15;;;12.90;99.90;;;;;;5094972;28;20056;-73
2022/07/10 02:42:46;;;;;;;7.28;2.22;;;13.00;99.90;;;;;;5113135;28;20052;-72
2022/07/10 02:45:13;;;;;;;7.72;1.67;;;13.00;99.90;;;;;;5124700;27;20100;-73
2022/07/10 02:47:40;;;;;;;7.40;1.42;;;13.00;99.90;;;;;;5133294;28;20081;-74
2022/07/10 02:50:09;;;;;;;4.85;1.55;;;13.00;99.90;;;;;;5115238;28;20100;-75
2022/07/10 02:52:36;;;;;;;7.32;1.58;;;13.00;99.90;;;;;;5115007;28;20129;-74
2022/07/10 02:55:02;;;;;;;8.27;1.50;;;13.00;99.90;;;;;;5114531;28;20051;-73
2022/07/10 02:57:29;;;;;;;6.82;1.60;;;13.10;99.90;;;;;;5129872;28;20088;-74
2022/07/10 02:59:57;;;;;;;9.57;2.45;;;13.10;99.90;;;;;;5112663;28;20101;-73
2022/07/10 03:02:24;;;;;;;8.10;2.05;;;13.10;99.90;;;;;;5112424;28;20043;-73
2022/07/10 03:04:51;;;;;;;8.27;1.75;;;13.10;99.90;;;;;;5094798;28;20058;-74
2022/07/10 03:07:18;;;;;;;10.10;1.75;;;13.20;99.90;;;;;;5094472;28;20051;-74
2022/07/10 03:09:45;;;;;;;4.18;1.35;;;13.20;99.90;;;;;;5112200;28;20051;-74
2022/07/10 03:12:12;;;;;;;6.43;1.63;;;13.20;99.90;;;;;;5113328;28;20047;-74
2022/07/10 03:14:39;;;;;;;6.82;1.80;;;13.30;99.90;;;;;;5112804;28;20059;-72
2022/07/10 03:17:07;;;;;;;5.53;1.80;;;13.30;99.90;;;;;;5094264;28;20060;-73
2022/07/10 03:19:34;;;;;;;7.22;2.03;;;13.40;99.90;;;;;;5094575;28;20183;-74
2022/07/10 03:22:01;;;;;;;7.43;1.73;;;13.50;99.90;;;;;;5112529;28;20090;-74
2022/07/10 03:24:28;;;;;;;8.07;1.92;;;13.50;99.90;;;;;;5105479;27;20047;-72
2022/07/10 03:26:54;;;;;;;8.13;2.33;;;13.70;99.90;;;;;;5118580;27;20081;-72
2022/07/10 03:29:21;;;;;;;6.10;2.50;;;13.60;99.90;;;;;;5137060;27;20054;-72
2022/07/10 03:31:48;;;;;;;10.63;2.17;;;13.80;99.90;;;;;;5117871;27;20054;-73
2022/07/10 03:34:16;;;;;;;7.93;1.38;;;13.80;99.90;;;;;;5118188;27;20055;-73
2022/07/10 03:36:43;;;;;;;7.40;1.80;;;13.90;99.90;;;;;;5136849;27;20414;-73
2022/07/10 03:39:10;;;;;;;7.28;1.98;;;14.00;99.90;;;;;;5117617;27;20415;-74
2022/07/10 03:41:37;;;;;;;10.32;2.13;;;14.10;99.90;;;;;;5118245;27;20043;-73
2022/07/10 03:44:05;;;;;;;6.78;1.85;;;14.20;99.90;;;;;;5136004;27;20051;-74
2022/07/10 03:46:32;;;;;;;7.97;1.60;;;14.20;99.90;;;;;;5118205;27;20055;-73
2022/07/10 03:48:59;;;;;;;8.25;2.00;;;14.30;99.90;;;;;;5117981;27;20047;-73
2022/07/10 03:51:27;;;;;;;13.32;2.10;;;14.30;99.90;;;;;;5134697;27;20092;-72
2022/07/10 03:53:54;;;;;;;9.52;2.17;;;14.40;99.90;;;;;;5098174;28;20052;-73
2022/07/10 03:59:05;;;;;;;10.77;2.80;;;14.50;99.90;;;;;;5097386;28;20051;-73
2022/07/10 04:01:32;;;;;;;7.10;1.83;;;14.60;99.90;;;;;;5115957;28;20449;-73
2022/07/10 04:03:59;;;;;;;9.98;1.92;;;14.60;99.90;;;;;;5097684;28;20047;-73
2022/07/10 04:06:27;;;;;;;9.15;2.10;;;14.70;99.90;;;;;;5097219;28;20047;-73
2022/07/10 04:08:54;;;;;;;6.40;1.60;;;14.70;99.90;;;;;;5100691;27;20051;-72
2022/07/10 04:11:21;;;;;;;8.30;2.45;;;14.80;99.90;;;;;;5136419;27;20075;-73
2022/07/10 04:13:47;;;;;;;12.63;2.13;;;14.80;99.90;;;;;;5136102;27;20175;-72
2022/07/10 04:16:14;;;;;;;9.23;2.00;;;14.90;99.90;;;;;;5117507;27;20104;-74
2022/07/10 04:18:41;;;;;;;13.23;1.95;;;14.90;99.90;;;;;;5136556;27;20065;-74
2022/07/10 04:21:08;;;;;;;15.93;2.45;;;14.90;99.90;;;;;;5135433;27;20047;-72
2022/07/10 04:23:36;;;;;;;12.38;2.25;;;14.90;99.90;;;;;;5117452;27;20050;-73
2022/07/10 04:26:03;;;;;;;14.30;2.42;;;15.00;99.90;;;;;;5117799;27;20096;-73
2022/07/10 04:28:30;;;;;;;8.27;2.35;;;15.00;99.90;;;;;;5135842;27;20104;-73
2022/07/10 04:30:57;;;;;;;9.27;2.20;;;15.00;99.90;;;;;;5135661;27;20047;-73
2022/07/10 04:33:24;;;;;;;12.48;2.60;;;15.10;99.90;;;;;;5135687;27;20102;-73
2022/07/10 04:35:51;;;;;;;9.68;2.85;;;15.10;99.90;;;;;;5117723;27;20050;-73
2022/07/10 04:38:17;;;;;;;9.13;2.45;;;15.10;99.90;;;;;;5102410;28;20051;-72
2022/07/10 04:40:46;;;;;;;8.88;2.22;;;15.20;99.90;;;;;;5114433;28;20116;-72
2022/07/10 04:43:12;;;;;;;14.15;1.88;;;15.20;99.90;;;;;;5096796;28;20043;-72
2022/07/10 04:45:39;;;;;;;14.50;2.50;;;15.20;99.90;;;;;;5114733;28;20055;-72
2022/07/10 04:48:06;;;;;;;12.55;2.63;;;15.30;99.90;;;;;;5096245;28;20044;-71
2022/07/10 04:50:33;;;;;;;12.13;2.00;;;15.40;99.90;;;;;;5122293;27;20173;-73
2022/07/10 04:53:01;;;;;;;12.32;2.22;;;15.40;99.90;;;;;;5116875;27;20487;-73
2022/07/10 04:55:28;;;;;;;8.15;1.98;;;15.50;99.90;;;;;;5134810;27;20212;-72
2022/07/10 04:57:56;;;;;;;9.35;2.20;;;15.60;99.90;;;;;;5135403;27;20462;-73
2022/07/10 05:00:23;;;;;;;7.53;1.73;;;15.60;99.90;;;;;;5116921;27;20095;-73
2022/07/10 05:02:50;;;;;;;5.40;1.73;;;15.70;99.90;;;;;;5134400;27;20047;-72
2022/07/10 05:05:17;;;;;;;7.85;1.55;;;15.70;99.90;;;;;;5110947;28;20096;-72
2022/07/10 05:07:44;;;;;;;9.63;3.25;;;15.80;99.90;;;;;;5114671;28;20086;-73
2022/07/10 05:10:11;;;;;;;4.63;1.85;;;15.80;99.90;;;;;;5114212;28;20052;-73
2022/07/10 05:12:38;;;;;;;9.48;1.83;;;15.80;99.90;;;;;;5114659;28;20446;-74
2022/07/10 05:15:08;;;;;;;7.25;1.70;;;15.90;99.90;;;;;;5118630;27;20163;-74
2022/07/10 05:17:34;;;;;;;6.72;2.28;;;15.90;99.90;;;;;;5115141;27;20051;-74
2022/07/10 05:20:01;;;;;;;11.40;1.90;;;15.90;99.90;;;;;;5116312;27;20103;-73
2022/07/10 05:22:30;;;;;;;12.15;2.22;;;15.90;99.90;;;;;;5133865;27;20035;-74
2022/07/10 05:24:57;;;;;;;11.40;1.92;;;15.90;99.90;;;;;;5135246;27;20047;-73
2022/07/10 05:27:25;;;;;;;7.40;1.80;;;15.90;99.90;;;;;;5134509;27;20043;-74
2022/07/10 05:29:52;;;;;;;6.07;1.52;;;15.90;99.90;;;;;;5134303;27;20051;-73
2022/07/10 05:32:21;;;;;;;7.85;1.83;;;15.90;99.90;;;;;;5134712;27;20409;-74
2022/07/10 05:34:48;;;;;;;8.52;2.50;;;16.00;99.90;;;;;;5116166;27;20055;-73
2022/07/10 05:37:14;;;;;;;4.93;1.65;;;16.00;99.90;;;;;;5113301;28;20572;-74
2022/07/10 05:39:41;;;;;;;7.05;2.17;;;16.10;99.90;;;;;;5113871;28;20048;-74
2022/07/10 05:42:08;;;;;;;5.95;1.80;;;16.20;99.90;;;;;;5113912;28;20089;-74
2022/07/10 05:44:35;;;;;;;11.88;2.83;;;16.30;99.90;;;;;;5113541;28;20065;-75
2022/07/10 05:47:02;;;;;;;6.40;1.45;;;16.30;99.90;;;;;;5113460;28;20453;-75
2022/07/10 05:49:32;;;;;;;8.75;1.67;;;16.40;99.90;;;;;;5096354;28;20448;-75
2022/07/10 05:51:58;;;;;;;3.83;1.57;;;16.40;99.90;;;;;;5095862;28;20391;-76
2022/07/10 05:54:25;;;;;;;3.65;1.20;;;16.40;99.90;;;;;;5096149;28;20055;-75
2022/07/10 05:56:52;;;;;;;6.90;1.90;;;16.40;99.90;;;;;;5114196;27;20548;-74
2022/07/10 05:59:20;;;;;;;14.27;2.17;;;16.40;99.90;;;;;;5095634;28;20104;-73
2022/07/10 06:01:46;;;;;;;7.30;1.85;;;16.40;99.90;;;;;;5123271;27;20090;-74
2022/07/10 06:04:14;;;;;;;5.57;1.40;;;16.30;99.90;;;;;;5134279;27;20043;-74
2022/07/10 06:06:42;;;;;;;6.00;2.03;;;16.30;99.90;;;;;;5115464;27;20062;-73
2022/07/10 06:09:09;;;;;;;7.18;1.95;;;16.30;99.90;;;;;;5134505;27;20047;-73
2022/07/10 06:11:36;;;;;;;8.02;2.10;;;16.30;99.90;;;;;;5135998;27;20449;-73
2022/07/10 06:14:03;;;;;;;9.93;1.77;;;16.30;99.90;;;;;;5116148;27;20070;-74
2022/07/10 06:16:30;;;;;;;8.23;1.75;;;16.30;99.90;;;;;;5133324;27;20066;-74
2022/07/10 06:18:57;;;;;;;6.72;1.75;;;16.50;99.90;;;;;;5115176;27;20047;-74
2022/07/10 06:21:23;;;;;;;8.30;2.72;;;16.60;99.90;;;;;;5133576;27;20051;-74
2022/07/10 06:23:52;;;;;;;5.85;1.73;;;16.70;99.90;;;;;;5133931;27;20090;-73
2022/07/10 06:26:18;;;;;;;9.60;1.98;;;16.90;99.90;;;;;;5133484;27;20126;-75
2022/07/10 06:28:45;;;;;;;13.73;2.22;;;17.00;99.90;;;;;;5132924;27;20059;-74
2022/07/10 06:31:12;;;;;;;7.63;2.15;;;17.00;99.90;;;;;;5094654;28;20104;-74
2022/07/10 06:33:39;;;;;;;5.93;2.00;;;17.00;99.90;;;;;;5094627;28;20056;-75
2022/07/10 06:36:07;;;;;;;9.07;1.70;;;17.10;99.90;;;;;;5094801;28;20066;-75
2022/07/10 06:38:34;;;;;;;6.10;2.17;;;17.10;99.90;;;;;;5095303;28;20051;-75
2022/07/10 06:41:02;;;;;;;7.60;2.20;;;17.10;99.90;;;;;;5112499;28;20047;-74
2022/07/10 06:43:29;;;;;;;3.72;1.40;;;17.20;99.90;;;;;;5112671;28;20548;-73
2022/07/10 06:45:56;;;;;;;5.18;1.20;;;17.10;99.90;;;;;;5094952;28;20100;-73
2022/07/10 06:48:25;;;;;;;5.05;1.58;;;17.10;99.90;;;;;;5112797;28;20054;-74
2022/07/10 06:50:51;;;;;;;5.43;1.88;;;17.10;99.90;;;;;;5094691;28;20434;-72
2022/07/10 06:53:23;;;;;;;4.55;1.60;;;17.20;99.90;;;;;;5095402;28;20537;-74
2022/07/10 06:55:50;;;;;;;4.60;1.38;;;17.20;99.90;;;;;;5094797;28;20047;-74
2022/07/10 06:58:19;;;;;;;5.78;1.20;;;17.30;99.90;;;;;;5114192;28;20048;-74
2022/07/10 07:00:46;;;;;;;5.45;1.45;;;17.30;99.90;;;;;;5117149;27;20051;-73
2022/07/10 07:03:12;;;;;;;7.00;1.85;;;17.30;99.90;;;;;;5098673;28;20121;-73
2022/07/10 07:05:39;;;;;;;4.00;1.42;;;17.30;99.90;;;;;;5098885;28;20051;-75
2022/07/10 07:08:06;;;;;;;7.72;1.35;;;17.30;99.90;;;;;;5116617;28;20047;-75
2022/07/10 07:10:33;;;;;;;4.53;1.40;;;17.20;99.90;;;;;;5098989;28;20047;-73
2022/07/10 07:13:02;;;;;;;4.30;1.00;;;17.20;99.90;;;;;;5098812;28;20043;-74
2022/07/10 07:15:31;;;;;;;5.70;1.58;;;17.10;99.90;;;;;;5104597;27;20495;-74
2022/07/10 07:18:07;;;;;;;8.70;1.88;;;17.00;99.90;;;;;;5107927;27;20063;-73
2022/07/10 07:23:19;;;;;;;6.70;1.67;;;17.00;99.90;;;;;;5130897;27;20070;-71
2022/07/10 07:25:47;;;;;;;6.22;1.85;;;16.90;99.90;;;;;;5134232;27;20521;-74
2022/07/10 07:28:16;;;;;;;3.55;1.50;;;16.90;99.90;;;;;;5115720;27;20059;-74
2022/07/10 07:30:45;;;;;;;6.72;1.52;;;16.90;99.90;;;;;;5134817;27;20047;-74
2022/07/10 07:33:11;;;;;;;6.60;1.33;;;17.00;99.90;;;;;;5128689;27;20047;-74
2022/07/10 07:35:39;;;;;;;5.82;1.63;;;17.00;99.90;;;;;;5133398;27;20051;-73
2022/07/10 07:38:06;;;;;;;4.13;1.38;;;17.10;99.90;;;;;;5133041;27;20058;-76
2022/07/10 07:40:34;;;;;;;10.68;2.42;;;17.10;99.90;;;;;;5110635;27;20043;-75
2022/07/10 07:43:01;;;;;;;4.63;1.50;;;17.20;99.90;;;;;;5114225;27;20035;-75
2022/07/10 07:45:28;;;;;;;6.88;1.90;;;17.40;99.90;;;;;;5132425;27;20059;-75
2022/07/10 07:47:59;;;;;;;9.27;1.90;;;17.50;99.90;;;;;;5112637;27;20055;-74
2022/07/10 07:50:28;;;;;;;5.28;1.50;;;17.80;99.90;;;;;;5116096;27;20059;-73
2022/07/10 07:52:56;;;;;;;7.10;1.80;;;18.10;99.90;;;;;;5128617;27;20061;-74
2022/07/10 07:55:23;;;;;;;3.63;1.13;;;18.20;99.90;;;;;;5130676;27;20046;-73
2022/07/10 07:57:53;;;;;;;4.05;1.67;;;18.30;99.90;;;;;;5113764;27;20103;-74
2022/07/10 08:00:22;;;;;;;4.80;1.27;;;18.40;99.90;;;;;;5130732;27;20039;-74
2022/07/10 08:02:49;;;;;;;4.47;1.45;;;18.50;99.90;;;;;;5114926;27;20051;-74
2022/07/10 08:05:18;;;;;;;7.20;1.20;;;18.40;99.90;;;;;;5115494;27;20452;-76
2022/07/10 08:07:46;;;;;;;6.68;1.38;;;18.40;99.90;;;;;;5109617;27;20048;-73
2022/07/10 08:10:15;;;;;;;5.28;1.63;;;18.40;99.90;;;;;;5132531;27;20047;-74
2022/07/10 08:12:42;;;;;;;9.93;1.35;;;18.30;99.90;;;;;;5112535;27;20096;-73
2022/07/10 08:15:10;;;;;;;3.97;1.30;;;18.30;99.90;;;;;;5133961;27;20051;-75
2022/07/10 08:17:38;;;;;;;4.30;1.20;;;18.20;99.90;;;;;;5109532;27;20166;-74
2022/07/10 08:20:06;;;;;;;2.45;1.10;;;18.10;99.90;;;;;;5127364;27;20509;-74
2022/07/10 08:22:35;;;;;;;12.05;1.55;;;18.10;99.90;;;;;;5116497;27;20046;-74
2022/07/10 08:25:02;;;;;;;6.22;1.30;;;18.10;99.90;;;;;;5112151;27;20047;-76
2022/07/10 08:27:29;;;;;;;5.45;1.20;;;18.30;99.90;;;;;;5114440;27;20068;-77
2022/07/10 08:29:56;;;;;;;2.90;0.82;;;18.60;99.90;;;;;;5115999;27;20055;-74
2022/07/10 08:32:23;;;;;;;3.22;0.90;;;18.80;99.90;;;;;;5131591;27;20096;-74
2022/07/10 08:34:50;;;;;;;2.28;0.68;;;18.90;99.90;;;;;;5128531;27;20494;-73
2022/07/10 08:37:17;;;;;;;2.88;1.00;;;18.90;99.90;;;;;;5127810;27;20088;-72
2022/07/10 08:39:45;;;;;;;3.53;0.85;;;19.00;99.90;;;;;;5125538;27;20358;-75
2022/07/10 08:42:12;;;;;;;7.43;1.30;;;19.10;99.90;;;;;;5108824;27;20039;-73
2022/07/10 08:44:40;;;;;;;3.80;0.98;;;19.20;99.90;;;;;;5111705;28;20059;-73
2022/07/10 08:47:07;;;;;;;5.20;1.08;;;19.30;99.90;;;;;;5110865;28;20040;-74
2022/07/10 08:49:35;;;;;;;3.42;1.08;;;19.50;99.90;;;;;;5107772;28;20130;-73
2022/07/10 08:52:05;;;;;;;3.88;0.95;;;19.60;99.90;;;;;;5108166;28;20050;-77
2022/07/10 08:54:32;;;;;;;;;;;19.70;99.90;;;;;;5108930;28;20040;-75
2022/07/10 08:57:02;;;;;;;4.35;0.90;;;19.70;99.90;;;;;;5110207;28;19997;-73
2022/07/10 08:59:30;;;;;;;6.57;1.58;;;19.80;99.90;;;;;;5105053;28;20060;-76
2022/07/10 09:01:57;;;;;;;2.63;0.70;;;19.70;99.90;;;;;;5107398;28;20039;-75
2022/07/10 09:04:26;;;;;;;4.20;1.20;;;19.70;99.90;;;;;;5106233;28;20040;-72
2022/07/10 09:06:54;;;;;;;4.97;0.98;;;19.70;99.90;;;;;;5104572;28;20135;-74
2022/07/10 09:09:23;;;;;;;1.50;1.10;;;19.70;99.90;;;;;;5108007;28;20648;-74
2022/07/10 09:11:57;;;;;;;3.13;0.80;;;19.60;99.90;;;;;;5111547;28;20495;-73
2022/07/10 09:14:27;;;;;;;1.90;0.90;;;19.50;99.90;;;;;;5108386;28;20043;-73
2022/07/10 09:16:55;;;;;;;2.70;0.88;;;19.40;99.90;;;;;;5104745;28;20242;-73
2022/07/10 09:19:23;;;;;;;3.40;0.98;;;19.40;99.90;;;;;;5105951;28;20495;-73
2022/07/10 09:21:52;;;;;;;4.85;1.10;;;19.30;99.90;;;;;;5105771;28;20048;-73
2022/07/10 09:24:20;;;;;;;3.92;1.20;;;19.20;99.90;;;;;;5108283;28;20456;-73
2022/07/10 09:26:59;;;;;;;2.45;0.93;;;19.10;99.90;;;;;;5109415;28;20480;-72
2022/07/10 09:29:27;;;;;;;2.92;1.15;;;18.90;99.90;;;;;;5103394;28;20392;-72
2022/07/10 09:31:55;;;;;;;2.88;0.90;;;18.60;99.90;;;;;;5111516;28;20052;-72
2022/07/10 09:34:39;;;;;;;5.75;1.48;;;18.40;99.90;;;;;;5105756;28;20047;-71
2022/07/10 09:37:19;;;;;;;2.25;0.93;;;18.20;99.90;;;;;;5109827;28;20050;-75
2022/07/10 09:39:53;;;;;;;4.70;1.20;;;18.20;99.90;;;;;;5102917;28;20547;-74
2022/07/10 09:42:31;;;;;;;2.88;1.10;;;18.10;99.90;;;;;;5108456;28;20138;-73
2022/07/10 09:45:17;;;;;;;2.83;0.80;;;18.10;99.90;;;;;;5118573;27;20658;-74
2022/07/10 09:47:45;;;;;;;3.13;1.10;;;18.10;99.90;;;;;;5110824;27;20055;-73
2022/07/10 09:50:22;;;;;;;5.43;1.50;;;18.10;99.90;;;;;;5130860;27;20042;-74
2022/07/10 09:52:51;;;;;;;4.82;1.52;;;18.00;99.90;;;;;;5110533;27;20134;-74
2022/07/10 09:55:20;;;;;;;4.68;1.50;;;17.90;99.90;;;;;;5107936;27;20134;-75
2022/07/10 09:57:54;;;;;;;2.90;1.35;;;17.80;99.90;;;;;;5109069;27;20138;-73
2022/07/10 10:00:26;;;;;;;7.18;1.65;;;17.80;99.90;;;;;;5131883;27;20042;-73
2022/07/10 10:02:59;;;;;;;2.65;1.30;;;17.80;99.90;;;;;;5108897;27;20073;-73
2022/07/10 10:05:36;;;;;;;4.55;1.50;;;17.80;99.90;;;;;;5112612;27;20051;-74
2022/07/10 10:08:10;;;;;;;3.10;1.42;;;17.90;99.90;;;;;;5125501;27;20118;-74
2022/07/10 10:10:42;;;;;;;5.82;1.55;;;18.00;99.90;;;;;;5128330;27;20134;-74
2022/07/10 10:13:11;;;;;;;4.38;1.50;;;18.20;99.90;;;;;;5126131;27;20075;-74
2022/07/10 10:15:41;;;;;;;7.00;2.08;;;18.50;99.90;;;;;;5132462;27;20401;-74
2022/07/10 10:18:08;;;;;;;5.72;1.83;;;18.80;99.90;;;;;;5111367;28;20062;-74
2022/07/10 10:20:41;;;;;;;7.63;1.63;;;19.00;99.90;;;;;;5113383;28;20107;-73
2022/07/10 10:23:11;;;;;;;5.22;1.83;;;19.10;99.90;;;;;;5128694;27;20044;-74
2022/07/10 10:25:38;;;;;;;7.03;1.90;;;19.10;99.90;;;;;;5109765;27;20047;-75
2022/07/10 10:28:08;;;;;;;7.28;1.80;;;19.00;99.90;;;;;;5130638;27;20167;-73
2022/07/10 10:30:38;;;;;;;7.28;2.50;;;18.80;99.90;;;;;;5131186;27;20055;-75
2022/07/10 10:33:51;;;;;;;5.88;1.92;;;18.80;99.90;;;;;;5121094;27;20057;-73
2022/07/10 10:36:47;;;;;;;7.70;1.90;;;19.00;99.90;;;;;;5108432;28;20126;-74
2022/07/10 10:39:16;;;;;;;6.15;1.90;;;19.20;99.90;;;;;;5109356;28;20062;-73
2022/07/10 10:41:47;;;;;;;11.23;2.42;;;19.30;99.90;;;;;;5128256;28;20039;-75
2022/07/10 10:44:32;;;;;;;6.45;1.90;;;19.40;99.90;;;;;;5127411;28;20479;-76
2022/07/10 10:47:07;;;;;;;8.00;2.22;;;19.70;99.90;;;;;;5110347;28;20499;-75
2022/07/10 10:50:02;;;;;;;6.80;2.35;;;19.80;99.90;;;;;;5112227;28;20047;-75
2022/07/10 10:52:29;;;;;;;10.00;1.98;;;19.70;99.90;;;;;;5067633;28;20112;-76
2022/07/10 10:55:07;;;;;;;10.88;1.60;;;19.50;99.90;;;;;;5110480;28;20043;-75
2022/07/10 10:57:52;;;;;;;6.07;1.70;;;19.50;99.90;;;;;;5122084;28;20099;-74
2022/07/10 11:00:36;;;;;;;5.55;1.50;;;19.60;99.90;;;;;;5110067;28;20047;-75
2022/07/10 11:03:20;;;;;;;10.60;1.98;;;19.70;99.90;;;;;;5126750;28;20050;-75
2022/07/10 11:05:51;;;;;;;5.10;1.50;;;19.90;99.90;;;;;;5112112;28;20091;-74
2022/07/10 11:08:38;;;;;;;5.18;1.40;;;20.10;99.90;;;;;;5112433;28;20557;-75
2022/07/10 11:11:37;;;;;;;6.93;1.98;;;20.40;99.90;;;;;;5108761;28;20432;-75
2022/07/10 11:14:05;;;;;;;7.18;1.65;;;20.60;99.90;;;;;;5105002;28;20043;-74
2022/07/10 11:16:33;;;;;;;7.97;1.77;;;20.90;99.90;;;;;;5129751;28;20130;-75
2022/07/10 11:19:02;;;;;;;7.03;1.95;;;21.00;99.90;;;;;;5113140;28;20047;-74
2022/07/10 11:21:44;;;;;;;5.32;1.88;;;21.00;99.90;;;;;;5126532;28;20043;-74
2022/07/10 11:24:25;;;;;;;2.63;1.30;;;20.60;99.90;;;;;;5129567;28;20816;-75
2022/07/10 11:27:03;;;;;;;6.97;1.73;;;20.20;99.90;;;;;;5129077;28;20051;-74
2022/07/10 11:29:38;;;;;;;4.70;1.63;;;19.90;99.90;;;;;;5111648;28;20092;-75
2022/07/10 11:32:07;;;;;;;4.78;1.40;;;20.10;99.90;;;;;;5106728;28;20051;-75
2022/07/10 11:34:37;;;;;;;6.23;1.83;;;20.40;99.90;;;;;;5124502;28;20121;-76
2022/07/10 11:37:15;;;;;;;5.45;1.63;;;20.70;99.90;;;;;;5123196;28;20143;-76
2022/07/10 11:39:42;;;;;;;4.43;1.48;;;21.10;99.90;;;;;;5124278;28;20043;-74
2022/07/10 11:42:09;;;;;;;5.82;1.80;;;21.30;99.90;;;;;;5124306;28;20486;-75
2022/07/10 11:44:36;;;;;;;4.40;1.63;;;21.00;99.90;;;;;;5108230;28;20384;-74
2022/07/10 11:47:05;;;;;;;5.78;1.70;;;21.00;99.90;;;;;;5108365;28;20089;-75
2022/07/10 11:49:32;;;;;;;3.17;1.35;;;21.20;99.90;;;;;;5107734;28;20054;-75
2022/07/10 11:52:04;;;;;;;3.85;1.38;;;21.00;99.90;;;;;;5109236;28;20047;-76
2022/07/10 11:54:32;;;;;;;5.45;1.52;;;20.70;99.90;;;;;;5109393;28;20071;-75
2022/07/10 11:57:08;;;;;;;4.18;2.00;;;20.50;99.90;;;;;;5112971;28;20092;-74
2022/07/10 11:59:35;;;;;;;5.63;1.88;;;20.50;99.90;;;;;;5105667;28;20043;-74
2022/07/10 12:02:02;;;;;;;5.70;1.83;;;20.40;99.90;;;;;;5107660;28;20100;-74
2022/07/10 12:04:31;;;;;;;4.78;1.88;;;20.40;99.90;;;;;;5110796;28;20560;-74
2022/07/10 12:06:58;;;;;;;4.70;2.33;;;20.10;99.90;;;;;;5110309;28;20055;-74
2022/07/10 12:09:25;;;;;;;13.73;1.92;;;20.10;99.90;;;;;;5114041;28;20043;-76
2022/07/10 12:12:04;;;;;;;3.63;1.65;;;20.00;99.90;;;;;;5110273;28;20078;-73
2022/07/10 12:14:31;;;;;;;6.30;1.67;;;20.00;99.90;;;;;;5113517;28;20043;-75
2022/07/10 12:16:59;;;;;;;7.90;1.88;;;20.20;99.90;;;;;;5111399;28;20059;-75
2022/07/10 12:19:30;;;;;;;6.47;1.90;;;20.40;99.90;;;;;;5102246;28;20117;-74
2022/07/10 12:21:57;;;;;;;6.47;1.67;;;20.40;99.90;;;;;;5110961;28;20055;-75
2022/07/10 12:24:26;;;;;;;8.40;1.60;;;20.30;99.90;;;;;;5129876;27;20116;-73
2022/07/10 12:26:55;;;;;;;6.63;1.80;;;20.10;99.90;;;;;;5110700;28;20052;-75
2022/07/10 12:29:25;;;;;;;7.32;1.40;;;20.00;99.90;;;;;;5108516;28;20129;-73
2022/07/10 12:31:54;;;;;;;6.07;1.67;;;19.90;99.90;;;;;;5108424;28;20083;-75
2022/07/10 12:34:33;;;;;;;3.75;1.70;;;19.60;99.90;;;;;;5106037;28;20881;-74
2022/07/10 12:37:07;;;;;;;5.35;1.50;;;19.50;99.90;;;;;;5110144;28;20459;-75
2022/07/10 12:39:37;;;;;;;6.47;1.75;;;19.50;99.90;;;;;;5107949;28;20048;-74
2022/07/10 12:42:05;;;;;;;6.27;1.40;;;19.50;99.90;;;;;;5107989;28;20438;-74
2022/07/10 12:44:39;;;;;;;4.57;1.45;;;19.50;99.90;;;;;;5110666;28;20105;-74
2022/07/10 12:47:11;;;;;;;5.35;1.77;;;19.40;99.90;;;;;;5111051;28;20096;-74
2022/07/10 12:49:56;;;;;;;4.75;1.85;;;19.30;99.90;;;;;;5110787;28;20133;-74
2022/07/10 12:52:25;;;;;;;6.38;1.40;;;19.20;99.90;;;;;;5107721;28;20127;-74
2022/07/10 12:55:09;;;;;;;3.95;1.65;;;19.10;99.90;;;;;;5102949;28;20047;-75
2022/07/10 12:57:47;;;;;;;9.13;2.38;;;19.00;99.90;;;;;;5105431;28;20055;-76
2022/07/10 13:00:19;;;;;;;5.10;1.70;;;18.80;99.90;;;;;;5106769;28;20133;-76
2022/07/10 13:02:50;;;;;;;4.75;1.88;;;18.70;99.90;;;;;;5108301;28;20564;-78